Time;durP1;ratioP1;P1;durP2;ratioP2;P2;SDS_P1;SDS_P2;PMS_P1;PMS_P2;Temp;Humidity;BMP_temperature;BMP_pressure;BME280_temperature;BME280_humidity;BME280_pressure;Samples;Min_cycle;Max_cycle;Signal;HPM_P1;HPM_P2
2022/12/11 00:01:43;;;;;;;35.72;17.35;;;;;;;-7.60;79.28;100307.06;4937035;28;20063;-64
2022/12/11 00:04:22;;;;;;;34.92;16.95;;;;;;;-7.70;80.29;100320.03;4906605;28;20140;-64
2022/12/11 00:07:25;;;;;;;36.78;17.60;;;;;;;-7.62;80.80;100313.72;4923671;28;20047;-64
2022/12/11 00:10:06;;;;;;;38.75;17.80;;;;;;;-7.39;81.00;100318.44;4949123;28;20047;-64
2022/12/11 00:13:02;;;;;;;48.38;19.48;;;;;;;-7.23;80.82;100311.69;4940005;28;20074;-64
2022/12/11 00:15:57;;;;;;;34.72;17.33;;;;;;;-6.87;80.65;100309.38;4949156;28;20098;-63
2022/12/11 00:21:23;;;;;;;37.75;18.05;;;;;;;-6.34;79.85;100334.22;4970889;28;20045;-64
2022/12/11 00:24:11;;;;;;;37.85;17.67;;;;;;;-6.19;79.39;100324.88;4948504;28;20049;-64
2022/12/11 00:26:57;;;;;;;33.60;15.82;;;;;;;-6.03;79.34;100325.66;4979785;27;20338;-64
2022/12/11 00:29:49;;;;;;;30.75;14.07;;;;;;;-5.91;79.19;100336.41;4954246;28;20487;-64
2022/12/11 00:32:31;;;;;;;27.52;15.10;;;;;;;-5.83;78.74;100332.59;4974398;28;20050;-64
2022/12/11 00:35:16;;;;;;;21.38;11.82;;;;;;;-5.82;78.27;100336.84;4922192;28;20066;-65
2022/12/11 00:37:51;;;;;;;23.10;11.73;;;;;;;-5.81;78.01;100337.75;4968895;28;20089;-64
2022/12/11 00:40:36;;;;;;;21.17;11.38;;;;;;;-5.80;77.82;100339.50;4944969;27;20263;-65
2022/12/11 00:46:16;;;;;;;23.50;12.73;;;;;;;-6.08;77.58;100344.09;4953506;27;20062;-65
2022/12/11 00:49:03;;;;;;;22.73;11.60;;;;;;;-6.19;77.46;100340.13;4973981;27;20066;-64
2022/12/11 00:51:46;;;;;;;30.67;13.05;;;;;;;-6.24;77.64;100339.03;4958964;27;20087;-64
2022/12/11 00:54:40;;;;;;;25.05;11.82;;;;;;;-6.15;78.11;100341.16;4940090;27;20048;-63
2022/12/11 01:00:15;;;;;;;20.40;10.38;;;;;;;-5.84;78.18;100318.13;4983873;27;20058;-64
2022/12/11 01:03:00;;;;;;;22.38;10.32;;;;;;;-5.71;76.86;100335.75;4977466;27;20042;-64
2022/12/11 01:06:07;;;;;;;18.90;8.80;;;;;;;-5.41;77.43;100320.22;4937027;27;20043;-63
2022/12/11 01:10:22;;;;;;;22.55;10.73;;;;;;;-5.15;76.11;100323.13;4914664;28;20048;-63
2022/12/11 01:12:01;;;;;;;18.95;8.70;;;;;;;-5.23;73.92;100280.34;4872344;28;20058;-63
2022/12/11 01:14:48;;;;;;;18.45;8.80;;;;;;;-4.93;72.81;100318.25;4872733;28;20049;-66
2022/12/11 01:17:42;;;;;;;16.98;7.50;;;;;;;-4.73;72.58;100313.19;4873373;28;20060;-65
2022/12/11 01:20:22;;;;;;;12.07;6.43;;;;;;;-4.68;71.00;100316.84;4905793;28;20037;-66
2022/12/11 01:26:01;;;;;;;14.73;7.55;;;;;;;-4.61;70.15;100318.84;4904162;28;20053;-65
2022/12/11 01:32:09;;;;;;;16.45;7.13;;;;;;;-4.66;70.04;100315.22;4895278;28;20087;-66
2022/12/11 01:35:01;;;;;;;13.38;6.13;;;;;;;-4.89;68.09;100321.78;4854042;28;20083;-64
2022/12/11 01:37:48;;;;;;;12.88;6.15;;;;;;;-5.21;68.37;100316.97;4893726;28;20083;-65
2022/12/11 01:40:26;;;;;;;15.70;7.20;;;;;;;-5.46;69.10;100286.03;4898989;28;20049;-65
2022/12/11 01:43:07;;;;;;;14.93;6.60;;;;;;;-5.45;70.22;100303.03;4913223;28;20048;-65
2022/12/11 01:48:46;;;;;;;7.75;4.97;;;;;;;-5.31;67.93;100306.25;4940129;27;20089;-66
2022/12/11 01:51:33;;;;;;;9.25;4.70;;;;;;;-5.33;66.07;100303.63;4880537;28;20047;-65
2022/12/11 01:54:43;;;;;;;9.23;4.75;;;;;;;-5.28;66.09;100307.28;4975834;27;20235;-65
2022/12/11 02:12:19;;;;;;;11.20;5.35;;;;;;;-5.14;63.55;100299.41;4962451;27;20039;-64
2022/12/11 02:15:07;;;;;;;8.30;4.57;;;;;;;-5.20;63.65;100285.56;4974028;27;20057;-65
2022/12/11 02:18:18;;;;;;;10.50;5.35;;;;;;;-5.10;62.69;100275.81;4950806;27;20050;-65
2022/12/11 02:21:04;;;;;;;10.05;5.28;;;;;;;-5.20;61.92;100293.22;4951833;27;20044;-62
2022/12/11 02:24:24;;;;;;;8.95;4.38;;;;;;;-5.26;61.68;100290.38;4967654;27;20056;-64
2022/12/11 02:27:29;;;;;;;9.15;4.93;;;;;;;-5.22;61.56;100288.84;4979919;27;20039;-64
2022/12/11 02:30:22;;;;;;;6.20;3.40;;;;;;;-5.14;60.97;100279.00;4974445;27;20084;-64
2022/12/11 02:33:02;;;;;;;10.85;4.82;;;;;;;-5.17;61.42;100289.06;4988111;27;20076;-65
2022/12/11 02:38:56;;;;;;;8.63;4.35;;;;;;;-5.07;60.96;100281.06;4864448;28;20076;-64
2022/12/11 02:41:36;;;;;;;6.63;4.07;;;;;;;-5.03;60.43;100277.84;4847850;28;20476;-64
2022/12/11 02:50:28;;;;;;;7.55;4.35;;;;;;;-4.91;59.39;100283.53;4896980;28;20057;-65
2022/12/11 02:53:06;;;;;;;7.90;4.00;;;;;;;-4.91;59.65;100263.13;4891198;28;20055;-65
2022/12/11 02:56:03;;;;;;;8.63;3.92;;;;;;;-4.79;59.63;100263.69;4866577;28;20064;-63
2022/12/11 02:58:50;;;;;;;8.50;3.72;;;;;;;-4.73;59.42;100272.41;4882794;28;20058;-65
2022/12/11 03:04:39;;;;;;;10.55;4.18;;;;;;;-4.72;58.28;100279.25;4977106;27;20046;-64
2022/12/11 03:07:40;;;;;;;8.35;3.72;;;;;;;-4.87;58.27;100261.56;4949725;27;20135;-65
2022/12/11 03:10:27;;;;;;;6.93;3.80;;;;;;;-5.20;57.27;100224.44;4935297;27;20120;-64
2022/12/11 03:13:16;;;;;;;9.73;4.25;;;;;;;-5.14;58.27;100268.81;4997679;27;20043;-66
2022/12/11 03:16:09;;;;;;;6.20;3.90;;;;;;;-5.14;58.95;100266.28;4921105;28;20047;-63
2022/12/11 03:19:18;;;;;;;8.77;4.03;;;;;;;-5.02;58.58;100257.56;4969295;27;20339;-64
2022/12/11 03:22:19;;;;;;;6.82;3.83;;;;;;;-5.07;57.95;100253.03;4987592;27;20051;-65
2022/12/11 03:25:00;;;;;;;8.07;3.97;;;;;;;-5.04;57.82;100271.00;4918611;27;20081;-65
2022/12/11 03:27:47;;;;;;;9.23;4.22;;;;;;;-5.16;57.78;100265.34;4939246;28;20047;-64
2022/12/11 03:30:32;;;;;;;6.45;3.13;;;;;;;-5.39;57.55;100262.59;4963397;27;20260;-64
2022/12/11 03:33:09;;;;;;;8.07;3.42;;;;;;;-5.34;57.87;100263.69;4979728;27;20058;-65
2022/12/11 03:35:48;;;;;;;7.22;3.70;;;;;;;-5.93;58.20;100160.78;4942536;27;20047;-64
2022/12/11 03:38:33;;;;;;;7.75;3.92;;;;;;;-5.43;57.96;100265.81;4952615;27;20049;-64
2022/12/11 03:41:16;;;;;;;9.48;3.75;;;;;;;-5.41;58.63;100259.09;4941815;27;20109;-64
2022/12/11 03:44:00;;;;;;;9.57;3.92;;;;;;;-5.37;58.47;100265.22;4966725;27;20106;-64
2022/12/11 03:47:03;;;;;;;6.50;3.60;;;;;;;-5.27;58.57;100262.28;4941739;27;20065;-64
2022/12/11 03:49:41;;;;;;;;;;;;;;;-5.28;59.25;100275.84;4967173;27;20039;-63
2022/12/11 03:52:26;;;;;;;8.60;3.65;;;;;;;-5.53;61.82;100263.63;4989268;27;20395;-63
2022/12/11 03:55:17;;;;;;;8.13;4.03;;;;;;;-5.54;62.43;100260.19;4957583;27;20041;-63
2022/12/11 03:58:09;;;;;;;8.25;3.45;;;;;;;-5.39;64.97;100279.53;4931809;27;20040;-63
2022/12/11 04:00:55;;;;;;;7.05;3.13;;;;;;;-5.47;68.17;100274.09;4970909;27;20051;-64
2022/12/11 04:03:40;;;;;;;5.47;2.90;;;;;;;-5.31;68.45;100290.97;4933677;27;20043;-64
2022/12/11 04:06:13;;;;;;;4.80;2.88;;;;;;;-5.27;67.05;100288.63;4982503;27;20515;-63
2022/12/11 04:08:57;;;;;;;5.95;3.10;;;;;;;-5.34;66.85;100283.16;4959739;28;20057;-65
2022/12/11 04:11:54;;;;;;;5.85;3.22;;;;;;;-5.34;66.62;100291.72;4984187;27;20050;-64
2022/12/11 04:26:58;;;;;;;4.32;2.75;;;;;;;-5.66;63.83;100313.94;4954367;27;20048;-64
2022/12/11 04:29:37;;;;;;;4.82;2.83;;;;;;;-5.79;63.49;100315.78;4954597;28;20132;-63
2022/12/11 04:32:16;;;;;;;6.93;3.00;;;;;;;-5.78;63.45;100323.50;4920613;28;20428;-63
2022/12/11 04:35:01;;;;;;;5.15;2.83;;;;;;;-5.67;63.74;100332.53;4965994;28;20051;-64
2022/12/11 04:37:53;;;;;;;4.95;2.70;;;;;;;-5.66;62.48;100333.44;4955093;28;20275;-64
2022/12/11 04:40:40;;;;;;;4.28;2.50;;;;;;;-5.83;62.72;100335.13;4922148;27;20066;-65
2022/12/11 04:43:38;;;;;;;5.18;2.65;;;;;;;-6.05;62.85;100337.41;4978496;28;20139;-64
2022/12/11 04:46:34;;;;;;;5.57;2.80;;;;;;;-6.10;63.37;100332.94;4966234;27;20039;-65
2022/12/11 04:49:14;;;;;;;5.55;3.30;;;;;;;-6.09;64.04;100334.72;4921353;28;20502;-64
2022/12/11 04:52:11;;;;;;;8.05;4.47;;;;;;;-6.05;63.74;100329.78;4977660;28;20043;-64
2022/12/11 04:54:55;;;;;;;8.30;2.42;;;;;;;-6.27;60.23;100336.28;4929892;28;20078;-64
2022/12/11 04:57:44;;;;;;;6.95;3.83;;;;;;;-6.42;60.23;100345.66;4933225;28;20043;-63
2022/12/11 05:03:28;;;;;;;2.58;1.83;;;;;;;-6.52;58.68;100345.16;4940592;28;20281;-64
2022/12/11 05:06:13;;;;;;;5.93;2.33;;;;;;;-6.72;58.15;100336.47;4975481;28;20114;-65
2022/12/11 05:08:51;;;;;;;6.22;3.00;;;;;;;-6.70;58.77;100356.91;4949827;28;20071;-63
2022/12/11 05:11:30;;;;;;;7.93;2.70;;;;;;;-6.69;59.05;100361.19;4992383;28;20047;-63
2022/12/11 05:14:17;;;;;;;3.80;2.38;;;;;;;-6.80;59.70;100367.38;4960187;27;20163;-65
2022/12/11 05:17:21;;;;;;;11.55;3.22;;;;;;;-6.97;60.27;100372.38;4962882;28;20047;-65
2022/12/11 05:20:00;;;;;;;3.83;2.28;;;;;;;-7.07;60.55;100375.22;4961530;27;20339;-66
2022/12/11 05:22:55;;;;;;;4.27;1.83;;;;;;;-7.12;60.08;100379.16;4913884;28;20079;-64
2022/12/11 05:25:58;;;;;;;3.28;2.17;;;;;;;-7.09;60.47;100374.25;4962582;27;20362;-64
2022/12/11 05:28:41;;;;;;;4.57;2.15;;;;;;;-6.95;60.86;100378.44;4882918;27;20047;-64
2022/12/11 05:34:22;;;;;;;4.07;2.22;;;;;;;-6.65;59.14;100378.34;4957432;27;20164;-64
2022/12/11 05:37:10;;;;;;;4.20;2.50;;;;;;;-6.67;58.08;100390.09;4948771;28;20340;-65
2022/12/11 05:39:54;;;;;;;6.03;2.30;;;;;;;-6.76;58.03;100394.72;4961049;27;20043;-64
2022/12/11 05:42:34;;;;;;;4.47;2.10;;;;;;;-6.96;57.91;100402.09;4965383;28;20059;-65
2022/12/11 05:48:02;;;;;;;4.38;2.00;;;;;;;-7.38;57.76;100406.50;4927195;27;20898;-64
2022/12/11 05:51:03;;;;;;;2.97;2.28;;;;;;;-7.55;57.99;100412.25;4977514;27;20297;-65
2022/12/11 05:53:49;;;;;;;6.75;2.33;;;;;;;-7.85;58.17;100396.97;4952573;27;20414;-64
2022/12/11 05:56:37;;;;;;;5.07;2.10;;;;;;;-7.75;58.37;100422.91;4979678;27;20363;-64
2022/12/11 05:59:29;;;;;;;2.65;2.03;;;;;;;-7.88;58.44;100432.31;4946064;27;20039;-64
2022/12/11 06:02:28;;;;;;;5.45;2.33;;;;;;;-8.09;59.23;100441.16;4948569;28;20044;-63
2022/12/11 06:05:17;;;;;;;3.85;2.20;;;;;;;-9.06;60.15;100300.09;4952536;27;20073;-64
2022/12/11 06:07:59;;;;;;;8.80;3.40;;;;;;;-8.32;60.69;100448.22;4952511;27;20099;-63
2022/12/11 06:10:43;;;;;;;6.13;2.40;;;;;;;-8.61;61.80;100412.63;4964107;28;20056;-63
2022/12/11 06:13:17;;;;;;;5.00;2.50;;;;;;;-8.48;62.85;100455.72;4932472;27;20045;-64
2022/12/11 06:15:52;;;;;;;3.38;2.42;;;;;;;-8.35;63.57;100468.31;4981105;27;20035;-62
2022/12/11 06:18:56;;;;;;;4.15;2.33;;;;;;;-8.25;63.71;100465.56;4985781;27;20058;-63
2022/12/11 06:21:42;;;;;;;3.95;2.28;;;;;;;-8.13;64.14;100465.47;4964200;27;20300;-64
2022/12/11 06:24:43;;;;;;;5.35;2.63;;;;;;;-8.07;64.46;100475.09;4969152;27;20089;-63
2022/12/11 06:27:36;;;;;;;4.10;2.35;;;;;;;-8.08;64.63;100478.44;4935341;27;20152;-63
2022/12/11 06:30:24;;;;;;;3.92;2.40;;;;;;;-8.04;65.28;100482.88;4962164;27;20235;-64
2022/12/11 06:36:16;;;;;;;6.63;2.65;;;;;;;-8.02;65.54;100488.94;4980357;27;20070;-63
2022/12/11 06:39:02;;;;;;;6.05;2.60;;;;;;;-8.08;64.85;100493.66;4964901;27;20150;-63
2022/12/11 06:41:58;;;;;;;3.45;2.22;;;;;;;-8.28;63.88;100490.75;4941319;27;20103;-63
2022/12/11 06:44:40;;;;;;;7.80;3.22;;;;;;;-8.26;63.84;100509.47;4964529;27;20039;-63
2022/12/11 06:47:22;;;;;;;4.15;2.65;;;;;;;-8.30;63.20;100515.13;4968438;27;20047;-63
2022/12/11 06:50:19;;;;;;;4.40;2.47;;;;;;;-8.42;62.82;100527.03;4882019;27;20092;-63
2022/12/11 06:53:21;;;;;;;3.50;2.50;;;;;;;-8.87;62.74;100465.06;4959388;28;20039;-63
2022/12/11 06:56:07;;;;;;;5.25;3.10;;;;;;;-8.62;63.26;100527.44;4948609;28;20054;-62
2022/12/11 06:58:48;;;;;;;6.45;3.28;;;;;;;-8.70;63.06;100540.47;4967133;27;20047;-63
2022/12/11 07:01:26;;;;;;;8.23;3.60;;;;;;;-8.82;63.37;100529.56;4985802;27;20053;-64
2022/12/11 07:07:24;;;;;;;9.07;3.03;;;;;;;-8.82;63.26;100546.41;4935383;27;20041;-63
2022/12/11 07:10:11;;;;;;;3.17;2.30;;;;;;;-8.96;63.38;100545.50;4963793;27;20078;-62
2022/12/11 07:13:14;;;;;;;3.45;2.50;;;;;;;-8.96;63.40;100551.47;4976207;27;20069;-62
2022/12/11 07:19:01;;;;;;;4.32;2.65;;;;;;;-8.97;64.48;100559.81;4965458;27;20222;-64
2022/12/11 07:21:54;;;;;;;4.68;2.65;;;;;;;-9.16;64.36;100517.25;4947801;27;20133;-64
2022/12/11 07:30:48;;;;;;;6.68;3.10;;;;;;;-9.04;65.03;100561.84;4981769;27;20076;-62
2022/12/11 07:33:50;;;;;;;7.47;2.75;;;;;;;-9.20;64.62;100565.88;4919469;28;20044;-62
2022/12/11 07:36:30;;;;;;;3.13;2.60;;;;;;;-9.29;64.66;100560.19;4875733;27;20091;-63
2022/12/11 07:39:10;;;;;;;6.07;2.97;;;;;;;-9.19;65.12;100567.63;4962480;27;20035;-62
2022/12/11 07:44:39;;;;;;;4.43;3.10;;;;;;;-9.36;65.00;100583.31;4951027;27;20047;-63
2022/12/11 07:47:37;;;;;;;7.30;3.20;;;;;;;-9.45;65.34;100578.53;4948368;27;20041;-62
2022/12/11 07:50:27;;;;;;;5.18;3.40;;;;;;;-9.42;66.16;100580.41;4882114;27;20120;-63
2022/12/11 07:53:20;;;;;;;5.78;2.90;;;;;;;-9.68;66.04;100566.84;4943197;27;20043;-63
2022/12/11 07:56:14;;;;;;;4.80;3.47;;;;;;;-9.66;65.66;100598.19;4972614;27;20051;-63
2022/12/11 07:59:00;;;;;;;9.25;3.80;;;;;;;-9.64;66.50;100606.72;4947951;27;20134;-63
2022/12/11 08:01:48;;;;;;;8.88;4.90;;;;;;;-9.83;66.35;100604.59;4945348;27;20050;-63
2022/12/11 08:04:41;;;;;;;7.65;3.45;;;;;;;-9.98;65.99;100606.91;4952680;28;20070;-63
2022/12/11 08:07:43;;;;;;;9.05;4.47;;;;;;;-10.18;66.08;100614.75;4948672;28;20051;-63
2022/12/11 08:10:42;;;;;;;14.68;5.10;;;;;;;-10.51;65.96;100609.03;4906834;28;20044;-63
2022/12/11 08:13:25;;;;;;;14.48;6.68;;;;;;;-10.78;66.90;100619.63;4899729;28;20063;-63
2022/12/11 08:16:29;;;;;;;19.85;9.80;;;;;;;-10.90;67.74;100617.97;4968769;28;20053;-63
2022/12/11 08:19:36;;;;;;;15.52;6.57;;;;;;;-10.95;68.31;100619.28;4963825;27;20058;-63
2022/12/11 08:22:26;;;;;;;32.75;12.05;;;;;;;-11.20;68.74;100631.69;4959313;28;20051;-63
2022/12/11 08:25:31;;;;;;;32.63;12.73;;;;;;;-11.48;68.76;100628.72;4955742;28;20042;-62
2022/12/11 08:28:13;;;;;;;18.05;10.57;;;;;;;-11.93;69.34;100621.88;4966710;28;20068;-62
2022/12/11 08:31:03;;;;;;;24.38;12.85;;;;;;;-11.87;69.91;100632.44;4950386;28;20053;-63
2022/12/11 08:33:56;;;;;;;;;;;;;;;-11.82;70.70;100630.25;4950760;28;20060;-62
2022/12/11 08:36:46;;;;;;;16.00;7.97;;;;;;;-11.84;71.15;100622.56;4945716;28;20200;-62
2022/12/11 08:39:24;;;;;;;12.63;7.82;;;;;;;-11.87;71.16;100651.72;4964673;27;20050;-61
2022/12/11 08:42:04;;;;;;;39.25;15.20;;;;;;;-11.95;71.17;100661.22;4981087;27;20394;-62
2022/12/11 08:44:48;;;;;;;25.35;12.18;;;;;;;-11.83;71.60;100663.75;4940011;28;20059;-62
2022/12/11 08:47:50;;;;;;;27.88;11.25;;;;;;;-11.79;72.07;100666.66;4922805;27;20052;-63
2022/12/11 08:53:42;;;;;;;12.73;6.65;;;;;;;-12.23;71.75;100664.06;4970682;27;20312;-65
2022/12/11 08:56:43;;;;;;;10.80;6.03;;;;;;;-12.36;72.63;100632.72;4933962;27;20049;-62
2022/12/11 09:00:02;;;;;;;61.60;31.13;;;;;;;-11.89;73.09;100669.25;4951596;28;20319;-63
2022/12/11 09:02:46;;;;;;;38.45;19.45;;;;;;;-11.67;73.11;100691.06;4932719;27;20043;-63
2022/12/11 09:05:33;;;;;;;48.53;24.73;;;;;;;-11.65;72.75;100690.44;4895133;27;20797;-63
2022/12/11 09:08:20;;;;;;;19.90;11.80;;;;;;;-11.89;72.46;100699.47;4949397;28;20052;-63
2022/12/11 09:11:07;;;;;;;13.32;7.63;;;;;;;-11.93;73.20;100701.63;4928417;27;20066;-63
2022/12/11 09:13:52;;;;;;;71.18;24.23;;;;;;;-11.80;73.78;100710.28;4973270;28;20042;-62
2022/12/11 09:19:51;;;;;;;43.05;19.05;;;;;;;-11.50;74.59;100690.75;4960933;27;20366;-62
2022/12/11 09:22:54;;;;;;;43.92;18.30;;;;;;;-11.13;74.82;100718.78;4943613;28;20070;-62
2022/12/11 09:31:38;;;;;;;11.75;6.07;;;;;;;-11.20;73.72;100711.53;4955615;27;19969;-64
2022/12/11 09:34:29;;;;;;;12.70;6.18;;;;;;;-11.21;74.07;100719.84;4961435;27;20146;-62
2022/12/11 09:37:10;;;;;;;17.65;8.15;;;;;;;-11.17;74.55;100721.88;4962295;27;20056;-62
2022/12/11 09:39:51;;;;;;;11.13;5.75;;;;;;;-11.08;74.37;100720.06;4956506;27;20043;-62
2022/12/11 09:42:53;;;;;;;9.45;4.97;;;;;;;-11.00;74.16;100726.56;4977255;27;20047;-62
2022/12/11 09:45:40;;;;;;;20.42;8.15;;;;;;;-10.95;74.14;100720.22;4927885;28;21018;-61
2022/12/11 09:48:25;;;;;;;35.13;15.75;;;;;;;-10.88;74.18;100724.09;4921946;27;20054;-62
2022/12/11 09:55:04;;;;;;;12.80;5.40;;;;;;;-11.00;74.30;100726.56;4952745;27;20061;-63
2022/12/11 09:58:08;;;;;;;14.65;6.25;;;;;;;-11.10;74.37;100739.25;4917007;27;20122;-63
2022/12/11 10:01:27;;;;;;;8.35;4.22;;;;;;;-11.16;74.92;100752.25;4982911;27;20047;-62
2022/12/11 10:07:59;;;;;;;9.13;4.47;;;;;;;-11.07;75.55;100754.63;4975188;27;20346;-62
2022/12/11 10:11:15;;;;;;;5.47;3.58;;;;;;;-11.06;75.61;100756.34;4965701;28;20093;-61
2022/12/11 10:14:04;;;;;;;91.70;22.45;;;;;;;-11.05;75.58;100755.63;4969620;27;20066;-62
2022/12/11 10:16:51;;;;;;;14.05;5.32;;;;;;;-11.13;75.57;100764.22;4951091;27;20047;-61
2022/12/11 10:19:35;;;;;;;81.70;19.77;;;;;;;-11.17;75.91;100762.22;4977213;27;20051;-62
2022/12/11 10:22:42;;;;;;;95.90;27.50;;;;;;;-11.34;76.20;100769.34;4963065;27;20308;-62
2022/12/11 10:28:50;;;;;;;21.17;8.25;;;;;;;-11.41;76.17;100782.25;4927151;28;20078;-61
2022/12/11 10:31:54;;;;;;;14.05;5.00;;;;;;;-11.40;76.42;100784.03;4955955;28;20047;-61
2022/12/11 10:38:00;;;;;;;14.00;4.80;;;;;;;-11.29;76.40;100788.25;4949082;28;20061;-62
2022/12/11 10:40:59;;;;;;;8.43;4.20;;;;;;;-11.16;76.27;100804.34;4966669;27;20055;-61
2022/12/11 10:43:52;;;;;;;8.23;4.15;;;;;;;-11.13;76.67;100789.44;4944014;28;20048;-62
2022/12/11 10:47:08;;;;;;;6.30;3.95;;;;;;;-11.10;75.87;100804.84;4941426;28;20100;-63
2022/12/11 10:49:59;;;;;;;13.18;5.35;;;;;;;-11.21;75.67;100791.38;4943913;28;20040;-62
2022/12/11 10:53:06;;;;;;;14.65;5.63;;;;;;;-11.19;75.08;100806.66;4958407;28;20101;-62
2022/12/11 10:56:05;;;;;;;15.70;6.22;;;;;;;-11.34;74.86;100803.78;4948748;28;20056;-62
2022/12/11 10:58:52;;;;;;;8.65;4.72;;;;;;;-11.66;74.50;100798.69;4937802;28;20057;-61
2022/12/11 11:01:33;;;;;;;7.88;4.05;;;;;;;-11.95;74.59;100804.84;4934850;28;20210;-62
2022/12/11 11:04:26;;;;;;;6.07;3.67;;;;;;;-12.19;74.69;100819.69;4952997;28;20050;-63
2022/12/11 11:07:36;;;;;;;8.90;3.28;;;;;;;-13.25;75.05;100654.00;4960744;27;20058;-63
2022/12/11 11:13:29;;;;;;;18.88;4.90;;;;;;;-13.20;75.86;100770.94;4928861;28;20339;-60
2022/12/11 11:16:29;;;;;;;6.88;3.50;;;;;;;-12.95;76.04;100843.44;4935353;28;20065;-63
2022/12/11 11:22:51;;;;;;;146.18;47.88;;;;;;;-12.97;76.38;100840.81;4913494;28;20101;-62
2022/12/11 11:25:54;;;;;;;51.22;22.98;;;;;;;-13.07;76.19;100846.69;4950504;27;20098;-61
2022/12/11 11:28:39;;;;;;;20.08;10.05;;;;;;;-13.25;76.02;100858.53;4962265;28;20051;-62
2022/12/11 11:31:26;;;;;;;18.35;8.00;;;;;;;-13.52;76.67;100841.06;4936655;28;20043;-62
2022/12/11 11:34:25;;;;;;;72.68;33.80;;;;;;;-13.92;77.20;100793.19;4949693;28;20313;-62
2022/12/11 11:39:59;;;;;;;19.85;13.35;;;;;;;-13.57;78.58;100858.25;4937092;28;20068;-63
2022/12/11 11:42:49;;;;;;;;;;;;;;;-13.51;78.32;100868.84;4916740;28;20385;-62
2022/12/11 11:45:36;;;;;;;7.80;4.90;;;;;;;-13.45;78.51;100892.75;4948403;27;20023;-62
2022/12/11 11:48:38;;;;;;;7.90;4.22;;;;;;;-13.44;78.33;100879.47;4946796;28;20040;-63
2022/12/11 11:51:39;;;;;;;33.35;11.75;;;;;;;-13.39;78.36;100883.25;4929476;27;20051;-61
2022/12/11 11:54:32;;;;;;;252.63;55.88;;;;;;;-13.39;78.41;100880.75;4913224;28;20974;-61
2022/12/11 11:57:29;;;;;;;193.80;55.22;;;;;;;-13.35;78.76;100900.34;4954173;28;20043;-62
2022/12/11 12:00:48;;;;;;;161.82;50.75;;;;;;;-13.34;79.08;100912.19;4968047;28;20035;-63
2022/12/11 12:03:44;;;;;;;78.97;29.60;;;;;;;-13.18;79.78;100915.25;4930449;27;20051;-62
2022/12/11 12:06:57;;;;;;;55.03;23.02;;;;;;;-12.94;80.04;100918.19;4943900;28;20055;-63
2022/12/11 12:10:00;;;;;;;69.90;24.13;;;;;;;-12.65;80.59;100901.44;4933439;28;20503;-62
2022/12/11 12:12:50;;;;;;;113.97;32.80;;;;;;;-12.32;80.36;100927.72;4963316;27;20287;-61
2022/12/11 12:19:42;;;;;;;101.20;29.10;;;;;;;-12.36;78.37;100935.78;4923644;28;20048;-61
2022/12/11 12:22:38;;;;;;;62.88;20.55;;;;;;;-12.34;78.49;100954.41;4954013;28;20056;-62
2022/12/11 12:25:29;;;;;;;55.42;18.20;;;;;;;-12.46;77.79;100958.41;4958906;28;20047;-63
2022/12/11 12:28:24;;;;;;;14.95;6.70;;;;;;;-12.50;77.95;100963.91;4928751;28;20040;-62
2022/12/11 12:31:46;;;;;;;16.00;6.93;;;;;;;-12.50;78.04;100966.44;4935250;28;20050;-61
2022/12/11 12:34:50;;;;;;;14.30;4.90;;;;;;;-12.54;78.32;100971.97;4968251;28;20049;-62
2022/12/11 12:38:00;;;;;;;6.55;4.05;;;;;;;-12.47;78.26;100981.81;4971483;27;20926;-63
2022/12/11 12:40:40;;;;;;;6.60;4.22;;;;;;;-12.46;78.32;100984.44;4958811;28;20043;-61
2022/12/11 12:43:35;;;;;;;14.15;5.85;;;;;;;-12.45;78.36;100990.41;4958760;28;20046;-62
2022/12/11 12:46:37;;;;;;;76.50;24.45;;;;;;;-12.59;78.03;100986.69;4936557;28;20036;-62
2022/12/11 12:49:40;;;;;;;85.32;24.40;;;;;;;-12.63;78.29;100980.50;4934993;27;20244;-63
2022/12/11 12:52:34;;;;;;;59.97;20.95;;;;;;;-12.60;78.32;100985.78;4936846;28;20054;-62
2022/12/11 12:55:28;;;;;;;16.88;8.43;;;;;;;-12.77;77.32;100980.94;4915808;28;20259;-61
2022/12/11 12:58:32;;;;;;;13.98;6.63;;;;;;;-13.21;76.55;100960.28;4949813;27;20055;-62
2022/12/11 13:01:19;;;;;;;12.57;5.32;;;;;;;-13.26;76.43;100999.22;4974474;27;20044;-62
2022/12/11 13:04:12;;;;;;;14.73;5.85;;;;;;;-13.50;76.83;100996.31;4956639;27;20062;-62
2022/12/11 13:07:33;;;;;;;21.30;7.65;;;;;;;-13.68;77.93;101004.66;4951808;27;20048;-61
2022/12/11 13:10:35;;;;;;;161.38;35.90;;;;;;;-13.74;78.77;101019.19;4949090;28;20047;-62
2022/12/11 13:13:38;;;;;;;65.45;16.95;;;;;;;-13.81;78.97;101021.88;4946201;28;20305;-62
2022/12/11 13:16:33;;;;;;;;;;;;;;;-13.83;79.35;101023.38;4976703;27;20102;-63
2022/12/11 13:19:36;;;;;;;147.25;32.47;;;;;;;-13.82;79.52;101015.97;4951024;27;20066;-62
2022/12/11 13:22:32;;;;;;;123.88;34.45;;;;;;;-13.71;79.56;101025.38;4956765;27;20054;-61
2022/12/11 13:25:50;;;;;;;112.60;28.92;;;;;;;-13.67;79.51;101021.53;4869871;28;20067;-61
2022/12/11 13:29:03;;;;;;;94.68;25.10;;;;;;;-13.57;79.42;101019.13;4913281;28;20044;-61
2022/12/11 13:32:00;;;;;;;13.73;6.55;;;;;;;-13.55;79.10;101012.59;4906800;28;20060;-62
2022/12/11 13:35:04;;;;;;;11.60;4.53;;;;;;;-13.73;78.70;101010.91;4926327;28;20069;-61
2022/12/11 13:37:47;;;;;;;11.18;5.32;;;;;;;-14.19;78.50;100956.44;4847583;28;20044;-61
2022/12/11 13:41:07;;;;;;;10.60;5.15;;;;;;;-13.94;79.07;101015.72;4952892;28;20101;-62
2022/12/11 13:43:58;;;;;;;15.15;6.05;;;;;;;-14.00;79.40;101015.19;4974779;27;20061;-62
2022/12/11 13:46:42;;;;;;;14.40;5.70;;;;;;;-13.98;79.42;101028.72;4933572;28;20063;-61
2022/12/11 13:49:38;;;;;;;11.43;5.50;;;;;;;-13.99;79.58;101037.03;4957571;27;20060;-61
2022/12/11 13:52:31;;;;;;;8.23;3.78;;;;;;;-13.99;79.60;101026.97;4897001;28;20044;-61
2022/12/11 13:55:33;;;;;;;6.03;3.67;;;;;;;-14.05;79.04;101031.44;4926453;28;20045;-62
2022/12/11 13:58:33;;;;;;;11.52;4.85;;;;;;;-13.96;79.06;101052.38;4952380;27;20058;-62
2022/12/11 14:01:28;;;;;;;22.98;8.50;;;;;;;-14.00;78.87;101055.38;4937321;28;20084;-61
2022/12/11 14:04:26;;;;;;;20.65;6.03;;;;;;;-13.93;79.28;101050.13;4892560;28;20619;-62
2022/12/11 14:07:20;;;;;;;12.82;6.03;;;;;;;-13.87;78.73;101048.97;4907759;28;20099;-61
2022/12/11 14:10:16;;;;;;;11.27;5.95;;;;;;;-14.03;78.16;101045.00;4942698;28;20036;-61
2022/12/11 14:13:08;;;;;;;18.77;8.20;;;;;;;-14.13;78.04;101052.44;4894746;28;20047;-62
2022/12/11 14:16:05;;;;;;;15.30;5.65;;;;;;;-14.18;77.92;101058.63;4890659;28;20307;-62
2022/12/11 14:21:29;;;;;;;8.57;4.60;;;;;;;-14.44;77.51;101057.06;4905522;28;20105;-60
2022/12/11 14:24:21;;;;;;;9.43;4.80;;;;;;;-14.55;77.58;101055.19;4886463;28;20051;-60
2022/12/11 14:27:26;;;;;;;16.08;7.28;;;;;;;-14.56;77.73;101063.47;4909237;28;20326;-61
2022/12/11 14:30:20;;;;;;;8.77;5.28;;;;;;;-14.65;77.42;101067.59;4815542;28;20052;-60
2022/12/11 14:33:13;;;;;;;7.13;3.40;;;;;;;-14.75;77.63;101069.94;4890551;28;20048;-60
2022/12/11 14:36:10;;;;;;;13.80;5.50;;;;;;;-14.70;77.68;101073.78;4929346;28;20048;-61
2022/12/11 14:38:55;;;;;;;16.13;6.97;;;;;;;-14.76;76.82;101070.69;4912484;28;20315;-61
2022/12/11 14:41:58;;;;;;;18.48;7.00;;;;;;;-14.82;75.45;101076.03;4902541;28;20056;-60
2022/12/11 14:44:43;;;;;;;17.25;6.95;;;;;;;-15.37;75.05;101013.88;4941620;28;20060;-60
2022/12/11 14:47:49;;;;;;;20.65;7.38;;;;;;;-14.99;75.04;101084.41;4924658;28;20048;-62
2022/12/11 14:53:45;;;;;;;17.02;7.15;;;;;;;-15.22;74.28;101093.06;4969546;28;20047;-61
2022/12/11 14:56:32;;;;;;;15.80;6.43;;;;;;;-15.38;74.00;101079.75;4950278;28;20092;-61
2022/12/11 14:59:26;;;;;;;13.02;5.95;;;;;;;-15.43;73.70;101098.44;4939225;28;20051;-60
2022/12/11 15:02:22;;;;;;;11.05;5.22;;;;;;;-15.36;74.20;101095.81;4908790;27;20520;-59
2022/12/11 15:05:28;;;;;;;9.73;4.97;;;;;;;-15.57;74.26;101076.13;4957435;28;20053;-61
2022/12/11 15:08:49;;;;;;;12.45;5.32;;;;;;;-15.30;75.46;101091.44;4932347;28;20054;-60
2022/12/11 15:11:39;;;;;;;8.98;4.38;;;;;;;-15.16;75.63;101094.41;4957414;28;20044;-62
2022/12/11 15:14:25;;;;;;;8.05;4.70;;;;;;;-15.35;75.62;101092.56;4961925;28;20078;-60
2022/12/11 15:17:09;;;;;;;7.95;4.22;;;;;;;-15.41;76.18;101102.00;4946194;28;20052;-60
2022/12/11 15:20:10;;;;;;;6.50;3.85;;;;;;;-15.45;76.39;101099.91;4973488;28;20335;-60